Time;durP1;ratioP1;P1;durP2;ratioP2;P2;SDS_P1;SDS_P2;PMS_P1;PMS_P2;Temp;Humidity;BMP_temperature;BMP_pressure;BME280_temperature;BME280_humidity;BME280_pressure;Samples;Min_cycle;Max_cycle;Signal;HPM_P1;HPM_P2
2022/05/05 00:02:38;;;;;;;6.82;5.40;;;19.60;65.90;;;;;;10943042;32;20053;-69
2022/05/05 00:08:40;;;;;;;8.98;6.22;;;19.50;66.00;;;;;;10942849;32;20039;-69
2022/05/05 00:14:42;;;;;;;7.15;6.07;;;19.50;66.10;;;;;;10941748;32;20022;-69
2022/05/05 00:20:44;;;;;;;6.65;5.45;;;19.50;66.70;;;;;;10942449;32;20437;-69
2022/05/05 00:26:47;;;;;;;10.57;7.95;;;19.30;67.50;;;;;;10942335;32;20019;-69
2022/05/05 00:32:48;;;;;;;11.70;7.20;;;19.20;68.20;;;;;;10941547;32;20383;-69
2022/05/05 00:38:50;;;;;;;8.55;6.72;;;19.20;68.60;;;;;;10942019;32;20399;-70
2022/05/05 00:44:52;;;;;;;9.90;8.68;;;19.10;69.10;;;;;;10941904;32;20338;-70
2022/05/05 00:50:55;;;;;;;10.52;6.68;;;19.00;69.10;;;;;;10941743;32;20042;-69
2022/05/05 00:56:58;;;;;;;7.65;6.78;;;19.10;69.30;;;;;;10941455;32;20344;-69
2022/05/05 01:03:02;;;;;;;9.30;7.90;;;19.10;69.30;;;;;;10942181;32;20062;-69
2022/05/05 01:09:05;;;;;;;8.05;6.50;;;19.00;69.30;;;;;;10941305;32;20049;-69
2022/05/05 01:15:08;;;;;;;9.45;6.78;;;18.90;69.30;;;;;;10244243;32;22199654;-69
2022/05/05 01:21:10;;;;;;;8.65;6.55;;;18.90;69.20;;;;;;10859991;32;20344;-70
2022/05/05 01:33:33;;;;;;;9.60;7.22;;;18.80;69.00;;;;;;10862680;32;20352;-69
2022/05/05 01:39:35;;;;;;;11.80;9.32;;;18.70;69.00;;;;;;10865794;32;20408;-69
2022/05/05 01:45:37;;;;;;;12.25;8.00;;;18.70;69.10;;;;;;10910173;32;20054;-69
2022/05/05 01:51:39;;;;;;;9.75;7.15;;;18.70;69.60;;;;;;10909983;32;20065;-69
2022/05/05 01:57:41;;;;;;;10.23;7.12;;;18.60;69.60;;;;;;10909855;32;20031;-69
2022/05/05 02:03:43;;;;;;;9.20;7.22;;;18.50;70.10;;;;;;10909621;32;20035;-69
2022/05/05 02:09:50;;;;;;;16.77;9.63;;;18.30;70.90;;;;;;10909275;32;20032;-69
2022/05/05 02:15:52;;;;;;;12.90;9.00;;;18.30;71.40;;;;;;10909164;32;20027;-69
2022/05/05 02:21:55;;;;;;;10.73;8.38;;;18.40;71.10;;;;;;10908775;32;20038;-70
2022/05/05 02:27:57;;;;;;;8.88;7.50;;;18.30;70.90;;;;;;10908714;32;20058;-69
2022/05/05 02:34:08;;;;;;;9.18;7.62;;;18.40;71.10;;;;;;10904418;32;20031;-69
2022/05/05 02:40:10;;;;;;;7.10;5.25;;;18.30;70.80;;;;;;10908250;32;20384;-70
2022/05/05 02:46:12;;;;;;;8.77;7.50;;;18.20;70.70;;;;;;10908105;32;20027;-69
2022/05/05 02:52:14;;;;;;;11.77;8.63;;;18.20;71.00;;;;;;10907289;32;20356;-70
2022/05/05 02:58:16;;;;;;;9.32;7.47;;;18.20;71.60;;;;;;10906845;32;20396;-70
2022/05/05 03:04:18;;;;;;;8.23;6.35;;;18.10;71.30;;;;;;10907582;32;20094;-69
2022/05/05 03:10:20;;;;;;;13.93;8.38;;;18.10;71.70;;;;;;10893760;32;20049;-69
2022/05/05 03:16:22;;;;;;;10.45;7.10;;;17.90;72.60;;;;;;10907027;32;20344;-69
2022/05/05 03:22:25;;;;;;;11.38;7.80;;;17.90;72.40;;;;;;10906828;32;20332;-70
2022/05/05 03:28:51;;;;;;;9.88;7.65;;;17.90;72.50;;;;;;10906552;32;20028;-70
2022/05/05 03:34:53;;;;;;;11.25;9.43;;;17.80;73.10;;;;;;10906963;32;20026;-70
2022/05/05 03:40:55;;;;;;;8.85;7.30;;;17.90;72.70;;;;;;10906025;32;20032;-70
2022/05/05 03:46:57;;;;;;;9.57;7.53;;;17.90;72.30;;;;;;10905968;32;20042;-70
2022/05/05 03:53:00;;;;;;;11.10;6.55;;;17.80;72.20;;;;;;10905771;32;20031;-70
2022/05/05 03:59:02;;;;;;;11.90;9.32;;;17.80;72.30;;;;;;10905405;32;20035;-69
2022/05/05 04:05:04;;;;;;;8.90;7.70;;;17.80;72.10;;;;;;10901876;32;20027;-70
2022/05/05 04:11:14;;;;;;;10.57;8.02;;;17.80;72.00;;;;;;10905237;32;20340;-69
2022/05/05 04:17:16;;;;;;;9.57;8.10;;;17.80;72.30;;;;;;10904690;32;20031;-69
2022/05/05 04:23:18;;;;;;;10.35;8.65;;;17.90;72.10;;;;;;10904829;32;20054;-69
2022/05/05 04:29:22;;;;;;;11.10;9.02;;;17.90;71.90;;;;;;10905155;32;20057;-70
2022/05/05 04:35:25;;;;;;;12.68;9.63;;;17.90;71.70;;;;;;10904420;32;20023;-70
2022/05/05 04:41:27;;;;;;;9.57;7.80;;;18.00;71.60;;;;;;10904227;32;20031;-69
2022/05/05 04:47:48;;;;;;;13.75;9.90;;;18.00;71.70;;;;;;10904292;32;20027;-70
2022/05/05 04:53:50;;;;;;;10.85;7.35;;;18.00;72.10;;;;;;10904036;32;20023;-70
2022/05/05 04:59:53;;;;;;;9.70;7.07;;;17.90;72.00;;;;;;10903933;32;20019;-70
2022/05/05 05:05:55;;;;;;;9.63;7.90;;;17.90;71.80;;;;;;10903878;32;20040;-70
2022/05/05 05:11:57;;;;;;;15.10;8.60;;;17.90;71.70;;;;;;10903968;32;20015;-70
2022/05/05 05:17:59;;;;;;;12.52;9.05;;;18.00;71.70;;;;;;10895230;32;20053;-70
2022/05/05 05:24:02;;;;;;;10.10;8.52;;;18.20;71.60;;;;;;10897897;32;20050;-70
2022/05/05 05:30:23;;;;;;;11.12;8.15;;;18.20;71.30;;;;;;10911627;32;20057;-70
2022/05/05 05:36:25;;;;;;;12.93;9.73;;;18.30;71.60;;;;;;10910616;32;20061;-70
2022/05/05 05:42:27;;;;;;;10.20;8.98;;;18.30;71.50;;;;;;10897033;32;20062;-70
2022/05/05 05:48:29;;;;;;;14.87;11.15;;;18.40;71.40;;;;;;10910342;32;20019;-70
2022/05/05 05:54:31;;;;;;;15.07;12.48;;;18.30;72.00;;;;;;10910109;32;20340;-70
2022/05/05 06:00:33;;;;;;;13.73;12.18;;;18.30;72.50;;;;;;10909406;32;20301;-72
2022/05/05 06:06:36;;;;;;;10.90;9.57;;;18.20;72.80;;;;;;10901887;32;20050;-71
2022/05/05 06:12:38;;;;;;;19.73;8.90;;;18.30;73.00;;;;;;11141361;27;20067;-71
2022/05/05 06:18:41;;;;;;;16.20;10.52;;;18.40;72.60;;;;;;10913631;32;20045;-71
2022/05/05 06:24:43;;;;;;;17.60;15.25;;;18.50;72.60;;;;;;10911203;32;20047;-71
2022/05/05 06:30:44;;;;;;;13.27;11.65;;;18.50;73.20;;;;;;10916923;32;20053;-71
2022/05/05 06:36:47;;;;;;;12.52;11.23;;;18.50;73.40;;;;;;10920009;32;20028;-71
2022/05/05 06:42:49;;;;;;;15.68;9.90;;;18.60;73.70;;;;;;10908782;32;20343;-71
2022/05/05 06:48:51;;;;;;;11.38;8.13;;;18.80;73.30;;;;;;10908233;32;20049;-70
2022/05/05 06:54:53;;;;;;;11.88;9.82;;;18.90;73.10;;;;;;10911660;32;20445;-70
2022/05/05 07:07:17;;;;;;;17.20;14.00;;;19.20;72.40;;;;;;10907854;32;20046;-70
2022/05/05 07:13:25;;;;;;;12.70;11.27;;;19.10;72.50;;;;;;10904820;32;20089;-70
2022/05/05 07:19:27;;;;;;;19.90;9.55;;;19.00;72.50;;;;;;10906864;32;20029;-70
2022/05/05 07:25:29;;;;;;;13.05;8.00;;;19.20;72.00;;;;;;10906406;32;20027;-69
2022/05/05 07:31:31;;;;;;;7.75;6.30;;;19.30;71.50;;;;;;10906265;32;20027;-70
2022/05/05 07:37:34;;;;;;;11.18;8.23;;;19.30;71.10;;;;;;10893013;32;20394;-70
2022/05/05 07:43:36;;;;;;;12.43;8.85;;;19.30;71.00;;;;;;10906564;32;20034;-75
2022/05/05 07:49:39;;;;;;;16.73;11.20;;;19.40;70.80;;;;;;10906088;32;20028;-72
2022/05/05 07:55:41;;;;;;;12.93;8.43;;;19.40;71.00;;;;;;10905876;32;20023;-74
2022/05/05 08:01:42;;;;;;;9.98;8.18;;;19.30;71.20;;;;;;10905576;32;20031;-75
2022/05/05 08:07:48;;;;;;;10.38;8.30;;;19.30;71.30;;;;;;10905337;32;20053;-74
2022/05/05 08:13:50;;;;;;;10.48;7.90;;;19.50;71.30;;;;;;10905231;32;20381;-73
2022/05/05 08:19:52;;;;;;;14.52;12.07;;;19.40;71.20;;;;;;10901993;32;20039;-71
2022/05/05 08:32:15;;;;;;;10.82;8.60;;;19.30;71.60;;;;;;10904852;32;20034;-75
2022/05/05 08:38:18;;;;;;;12.70;9.95;;;19.50;71.00;;;;;;10904591;32;20050;-72
2022/05/05 08:44:20;;;;;;;11.45;8.55;;;19.70;70.90;;;;;;10900264;32;20319;-72
2022/05/05 08:50:24;;;;;;;12.27;10.18;;;19.70;70.60;;;;;;10902998;32;20027;-74
2022/05/05 08:56:26;;;;;;;12.68;8.00;;;19.80;70.20;;;;;;10904139;32;20058;-75
2022/05/05 09:02:28;;;;;;;8.63;6.68;;;19.90;69.70;;;;;;10904102;32;20331;-73
2022/05/05 09:08:34;;;;;;;10.48;8.05;;;20.20;69.20;;;;;;10903988;32;20049;-74
2022/05/05 09:14:44;;;;;;;11.02;7.43;;;20.20;68.80;;;;;;10902978;32;20049;-74
2022/05/05 09:20:47;;;;;;;10.63;7.32;;;20.30;68.50;;;;;;10906336;32;20350;-75
2022/05/05 09:26:55;;;;;;;10.40;7.25;;;20.30;68.10;;;;;;10940852;32;20421;-76
2022/05/05 09:32:57;;;;;;;29.33;9.43;;;20.40;67.80;;;;;;10940406;32;20027;-75
2022/05/05 09:39:04;;;;;;;18.10;10.07;;;20.50;67.60;;;;;;10940348;32;20046;-76
2022/05/05 09:45:13;;;;;;;20.35;8.40;;;20.60;67.10;;;;;;10940664;32;20023;-75
2022/05/05 09:51:16;;;;;;;8.98;5.78;;;20.60;66.90;;;;;;10940400;32;20350;-76
2022/05/05 10:10:03;;;;;;;9.65;6.00;;;20.80;66.30;;;;;;10946944;32;20019;-69
2022/05/05 10:16:06;;;;;;;12.40;7.57;;;20.80;66.30;;;;;;10929287;32;20339;-69
2022/05/05 10:22:21;;;;;;;8.38;5.18;;;20.80;66.20;;;;;;10946846;32;20031;-76
2022/05/05 10:28:47;;;;;;;8.55;7.20;;;20.80;66.00;;;;;;10946738;32;20022;-76
2022/05/05 10:35:23;;;;;;;10.38;7.12;;;20.90;65.60;;;;;;10945420;32;20050;-75
2022/05/05 10:41:35;;;;;;;7.47;6.43;;;20.90;65.60;;;;;;10946379;32;20057;-73
2022/05/05 10:48:04;;;;;;;9.65;7.40;;;20.80;65.60;;;;;;10943386;32;20383;-75
2022/05/05 10:54:25;;;;;;;10.90;5.97;;;20.90;65.40;;;;;;10929855;32;20057;-78
2022/05/05 11:00:44;;;;;;;8.38;5.20;;;21.00;65.20;;;;;;10945230;32;20050;-76
2022/05/05 11:06:50;;;;;;;8.70;6.12;;;21.10;65.00;;;;;;10945087;32;20045;-76
2022/05/05 11:12:53;;;;;;;7.75;5.40;;;21.20;64.50;;;;;;10943834;32;20027;-77
2022/05/05 11:25:17;;;;;;;9.35;6.40;;;21.20;64.60;;;;;;10926965;32;20039;-75
2022/05/05 11:31:21;;;;;;;7.28;5.00;;;21.20;64.70;;;;;;10944076;32;20055;-78
2022/05/05 11:37:29;;;;;;;7.90;4.10;;;21.20;64.60;;;;;;10930691;32;20049;-78
2022/05/05 11:49:57;;;;;;;6.45;4.43;;;21.40;64.20;;;;;;10944117;32;20022;-79
2022/05/05 11:55:59;;;;;;;6.15;4.40;;;21.30;64.30;;;;;;10943550;32;20061;-77
2022/05/05 12:02:05;;;;;;;8.05;5.05;;;21.30;64.40;;;;;;10938989;32;20031;-70
2022/05/05 12:08:21;;;;;;;8.30;4.70;;;21.30;64.10;;;;;;10943020;32;20053;-69
2022/05/05 12:14:23;;;;;;;5.20;4.18;;;21.30;63.90;;;;;;10943019;32;20470;-69
2022/05/05 12:20:29;;;;;;;5.62;3.58;;;21.20;64.00;;;;;;10942069;32;20031;-70
2022/05/05 12:26:36;;;;;;;6.00;4.07;;;21.10;64.00;;;;;;10941917;32;20019;-70
2022/05/05 12:32:50;;;;;;;5.90;4.05;;;21.10;64.00;;;;;;10928911;32;20018;-69
2022/05/05 12:38:52;;;;;;;7.60;3.78;;;21.20;63.70;;;;;;10928776;32;20045;-70
2022/05/05 12:44:54;;;;;;;6.22;4.10;;;21.20;63.70;;;;;;10940515;32;20058;-70
2022/05/05 12:51:15;;;;;;;11.57;5.80;;;21.20;63.70;;;;;;10926460;32;20054;-70
2022/05/05 13:03:41;;;;;;;8.15;5.25;;;21.10;63.90;;;;;;10902074;32;20046;-70
2022/05/05 13:09:45;;;;;;;5.62;4.57;;;21.00;63.80;;;;;;10903865;32;20050;-69
2022/05/05 13:15:47;;;;;;;8.98;5.43;;;20.90;64.00;;;;;;10903950;32;20020;-69
2022/05/05 13:22:03;;;;;;;6.00;3.83;;;20.90;64.10;;;;;;10903703;32;20054;-70
2022/05/05 13:28:08;;;;;;;9.70;5.03;;;20.90;64.10;;;;;;10901021;32;20039;-69
2022/05/05 13:34:10;;;;;;;6.15;5.07;;;20.80;64.30;;;;;;10903749;32;20089;-69
2022/05/05 13:40:41;;;;;;;7.68;5.50;;;20.80;64.60;;;;;;10911086;32;20111;-69
2022/05/05 13:46:43;;;;;;;6.68;4.70;;;20.90;64.40;;;;;;10910568;32;20032;-70
2022/05/05 13:52:45;;;;;;;7.70;5.70;;;20.90;64.50;;;;;;10910456;32;20042;-70
2022/05/05 13:58:48;;;;;;;9.15;4.93;;;20.80;64.90;;;;;;10907878;32;20039;-71
2022/05/05 14:04:50;;;;;;;6.85;4.50;;;20.80;65.30;;;;;;10910104;32;20073;-70
2022/05/05 14:17:14;;;;;;;11.48;7.37;;;20.80;65.30;;;;;;10933188;32;20027;-74
2022/05/05 14:23:17;;;;;;;5.25;3.65;;;20.80;66.00;;;;;;10940328;32;20116;-78
2022/05/05 14:29:19;;;;;;;5.93;4.25;;;20.80;65.80;;;;;;10932034;32;20026;-77
2022/05/05 14:35:21;;;;;;;10.68;5.18;;;20.90;65.50;;;;;;10945898;32;20031;-77
2022/05/05 14:41:35;;;;;;;7.70;4.93;;;21.00;65.50;;;;;;10908686;32;20049;-77
2022/05/05 14:47:44;;;;;;;6.70;4.90;;;21.00;65.80;;;;;;10907567;32;20433;-77
2022/05/05 14:53:46;;;;;;;8.57;5.80;;;21.00;65.70;;;;;;10908002;32;20028;-79
2022/05/05 15:06:15;;;;;;;8.13;5.45;;;21.00;65.80;;;;;;10905261;32;20057;-76
2022/05/05 15:12:18;;;;;;;6.35;4.03;;;20.90;66.20;;;;;;10907324;32;20050;-76
2022/05/05 15:18:21;;;;;;;7.75;6.80;;;20.80;66.50;;;;;;10907309;32;20019;-77
2022/05/05 15:24:23;;;;;;;5.10;3.72;;;20.70;66.80;;;;;;10907230;32;20015;-77
2022/05/05 15:30:26;;;;;;;8.20;5.37;;;20.60;66.90;;;;;;10893245;32;20046;-75
2022/05/05 15:36:28;;;;;;;5.57;3.55;;;20.50;67.10;;;;;;10902845;32;20046;-77
2022/05/05 15:42:30;;;;;;;6.10;4.18;;;20.50;67.10;;;;;;10906477;32;20460;-76
2022/05/05 15:48:32;;;;;;;7.30;4.28;;;20.50;67.10;;;;;;10906126;32;20196;-76
2022/05/05 15:54:34;;;;;;;6.40;4.55;;;20.40;67.10;;;;;;10905855;32;20015;-75
2022/05/05 16:00:41;;;;;;;6.03;4.22;;;20.40;67.00;;;;;;10905193;32;20327;-76
2022/05/05 16:07:26;;;;;;;6.68;3.83;;;20.40;67.20;;;;;;10905733;32;20020;-74
2022/05/05 16:13:28;;;;;;;6.37;3.60;;;20.30;67.50;;;;;;10901846;32;20035;-75
2022/05/05 16:19:30;;;;;;;7.60;5.87;;;20.20;67.60;;;;;;10884719;32;20066;-75
2022/05/05 16:31:54;;;;;;;5.60;4.28;;;20.10;68.30;;;;;;10860421;32;20054;-74
2022/05/05 16:37:59;;;;;;;6.03;4.60;;;20.00;68.60;;;;;;10862858;32;20027;-75
2022/05/05 16:44:01;;;;;;;5.93;4.43;;;20.00;68.70;;;;;;10862661;32;20058;-74
2022/05/05 16:50:24;;;;;;;7.93;4.82;;;20.00;68.80;;;;;;10859730;32;20031;-74
2022/05/05 16:56:28;;;;;;;8.18;4.95;;;20.00;68.70;;;;;;10862302;32;20028;-75
2022/05/05 17:02:31;;;;;;;7.57;5.62;;;19.90;69.10;;;;;;10862180;32;20059;-74
2022/05/05 17:08:33;;;;;;;7.05;5.28;;;19.90;69.20;;;;;;10862190;32;20023;-73
2022/05/05 17:14:35;;;;;;;7.20;5.32;;;19.90;69.20;;;;;;10855538;32;20036;-74
2022/05/05 17:20:45;;;;;;;7.65;5.15;;;19.80;69.40;;;;;;10857002;32;20391;-74
2022/05/05 17:26:47;;;;;;;9.50;5.85;;;19.80;69.70;;;;;;10870462;32;20062;-75
2022/05/05 17:32:49;;;;;;;12.05;5.50;;;19.70;70.00;;;;;;10869368;32;20023;-72
2022/05/05 17:38:51;;;;;;;6.87;4.57;;;19.70;70.20;;;;;;10869078;32;20098;-74
2022/05/05 17:51:14;;;;;;;8.40;5.35;;;19.50;70.90;;;;;;10869082;32;20039;-74
2022/05/05 17:57:17;;;;;;;6.80;5.80;;;19.50;71.10;;;;;;10868488;32;20050;-73
2022/05/05 18:03:19;;;;;;;8.18;6.30;;;19.50;70.90;;;;;;10869587;32;20032;-73
2022/05/05 18:09:24;;;;;;;9.50;6.18;;;19.50;71.00;;;;;;10867427;32;20066;-73
2022/05/05 18:15:26;;;;;;;9.75;6.57;;;19.50;71.30;;;;;;10866783;32;20040;-73
2022/05/05 18:21:28;;;;;;;7.78;6.20;;;19.40;71.60;;;;;;10855166;32;20019;-73
2022/05/05 18:27:32;;;;;;;11.05;6.35;;;19.40;71.60;;;;;;10866167;32;20058;-73
2022/05/05 18:33:34;;;;;;;10.23;7.03;;;19.30;71.90;;;;;;10854391;32;20035;-73
2022/05/05 18:39:41;;;;;;;13.07;8.38;;;19.30;72.20;;;;;;10894765;32;20031;-73
2022/05/05 18:45:43;;;;;;;9.32;6.07;;;19.20;72.60;;;;;;10894760;32;20334;-73
2022/05/05 18:51:46;;;;;;;6.40;4.93;;;19.20;73.10;;;;;;10904294;32;20028;-72
2022/05/05 18:57:49;;;;;;;10.18;6.50;;;19.10;73.10;;;;;;10894591;32;20015;-73
2022/05/05 19:03:52;;;;;;;8.80;6.37;;;19.10;73.10;;;;;;10907239;32;20031;-72
2022/05/05 19:09:54;;;;;;;10.55;8.07;;;19.10;73.20;;;;;;10907354;32;20045;-73
2022/05/05 19:15:56;;;;;;;14.75;8.02;;;19.10;73.20;;;;;;10889628;32;20054;-73
2022/05/05 19:21:59;;;;;;;10.40;5.78;;;19.20;73.10;;;;;;10893354;32;20050;-73
2022/05/05 19:28:01;;;;;;;7.85;5.93;;;19.10;73.10;;;;;;10893370;32;20059;-72
2022/05/05 19:34:03;;;;;;;9.52;6.25;;;19.20;73.00;;;;;;10906277;32;20057;-73
2022/05/05 19:40:06;;;;;;;7.90;6.07;;;19.10;73.30;;;;;;10906160;32;20391;-73
2022/05/05 19:46:08;;;;;;;7.78;5.65;;;19.00;73.90;;;;;;10902924;32;20023;-73
2022/05/05 19:52:10;;;;;;;8.23;5.93;;;18.90;73.80;;;;;;10906002;32;20383;-72
2022/05/05 20:07:22;;;;;;;7.00;5.18;;;19.10;73.50;;;;;;10939170;32;20031;-71
2022/05/05 20:10:56;;;;;;;9.25;7.00;;;19.00;73.20;;;;;;10943438;32;20012;-72
2022/05/05 20:16:58;;;;;;;7.87;5.80;;;18.90;73.90;;;;;;10927594;32;20027;-72
2022/05/05 20:23:00;;;;;;;8.05;6.05;;;18.80;74.20;;;;;;10942804;32;20023;-72
2022/05/05 20:29:05;;;;;;;13.07;8.38;;;18.80;74.40;;;;;;10938529;32;20327;-72
2022/05/05 20:35:08;;;;;;;9.98;7.03;;;18.70;74.70;;;;;;10939249;32;20387;-71
2022/05/05 20:41:10;;;;;;;11.23;6.40;;;18.50;75.20;;;;;;10942621;32;20038;-71
2022/05/05 20:47:12;;;;;;;9.05;6.18;;;18.50;75.50;;;;;;10928607;32;20062;-70
2022/05/05 20:53:17;;;;;;;8.05;5.00;;;18.40;75.60;;;;;;10907135;32;20043;-71
2022/05/05 20:59:19;;;;;;;8.30;6.47;;;18.40;75.60;;;;;;10903583;32;20105;-71
2022/05/05 21:05:21;;;;;;;7.95;4.87;;;18.30;75.90;;;;;;10899428;32;20035;-71
2022/05/05 21:11:23;;;;;;;8.07;5.70;;;18.30;76.20;;;;;;10904527;32;20052;-71
2022/05/05 21:17:57;;;;;;;12.18;9.38;;;18.20;76.50;;;;;;10904583;32;20039;-69
2022/05/05 21:30:23;;;;;;;8.82;5.53;;;18.10;76.60;;;;;;10901199;32;20403;-69
2022/05/05 21:36:25;;;;;;;7.62;5.10;;;18.10;76.20;;;;;;10903938;32;20387;-69
2022/05/05 21:42:27;;;;;;;3.00;2.47;;;18.10;76.20;;;;;;10903113;32;20050;-70
2022/05/05 21:48:30;;;;;;;6.85;3.85;;;18.20;75.80;;;;;;10902215;32;20027;-70
2022/05/05 21:54:32;;;;;;;8.13;3.78;;;18.20;75.70;;;;;;10901949;32;20328;-70
2022/05/05 22:00:42;;;;;;;5.30;3.60;;;18.30;75.40;;;;;;10907838;32;20035;-70
2022/05/05 22:06:45;;;;;;;4.32;3.12;;;18.30;75.30;;;;;;10909789;32;20050;-70
2022/05/05 22:12:47;;;;;;;4.18;3.37;;;18.30;75.30;;;;;;10910854;27;20058;-71
2022/05/05 22:18:49;;;;;;;5.37;2.95;;;18.30;75.40;;;;;;10909483;32;20399;-69
2022/05/05 22:24:51;;;;;;;4.82;3.25;;;18.30;75.20;;;;;;10906831;32;20018;-70
2022/05/05 22:30:53;;;;;;;5.50;3.47;;;18.30;74.90;;;;;;10895734;32;20053;-70
2022/05/05 22:36:55;;;;;;;5.97;4.18;;;18.20;75.10;;;;;;10909011;32;20024;-69
2022/05/05 22:43:21;;;;;;;5.37;3.60;;;18.20;75.10;;;;;;10908478;32;20335;-68
2022/05/05 22:56:12;;;;;;;8.80;5.78;;;18.10;75.10;;;;;;10832021;32;20364;-70
2022/05/05 23:02:14;;;;;;;6.18;4.85;;;18.00;75.20;;;;;;10793759;33;20031;-70
2022/05/05 23:08:17;;;;;;;6.50;4.97;;;17.80;75.60;;;;;;10792624;33;20067;-70
2022/05/05 23:14:19;;;;;;;7.55;3.97;;;17.80;75.80;;;;;;10790127;33;20323;-70
2022/05/05 23:20:23;;;;;;;8.30;5.12;;;17.80;75.80;;;;;;10820379;33;20423;-70
2022/05/05 23:26:25;;;;;;;7.30;5.25;;;17.80;75.80;;;;;;10829299;32;20032;-70
2022/05/05 23:32:27;;;;;;;8.60;5.40;;;17.80;75.70;;;;;;10887139;32;20035;-68
2022/05/05 23:38:29;;;;;;;5.60;4.05;;;17.80;75.90;;;;;;10905950;32;20023;-71
2022/05/05 23:44:33;;;;;;;5.35;4.00;;;17.70;75.90;;;;;;10906562;32;20055;-70
2022/05/05 23:50:35;;;;;;;7.68;5.03;;;17.70;76.10;;;;;;10892981;32;20042;-70
2022/05/05 23:56:40;;;;;;;6.80;5.10;;;17.70;76.10;;;;;;10906099;32;20027;-70
